North Attleboro, Massachusetts
Current Conditions -  °F | °C
As of 1:55 PM on Friday 24 Oct 2014 (Local Time) from KSFZ Reporting Station
Overcast Overcast  
Wind Chill: 52°   Ceiling: 2000
Heat Index: 52°   Visibility: 10mi
Dew Point: 39°   Wind: 8mph
Humidity: 62%   Direction: 310°NW
Pressure: 29.69"   Gusts: NA
Location:  41.98°N, 71.33°W
Report Text: KSFZ 241755Z 31007KT 10SM OVC020 11/04 A2969 RMK AO1 10120 20090 57007
Loading
Personal Weather Stations






























Interactive Weather Map
Tropical Storm Tracking
New forecast layout! Learn more

10-Day Weather Forecast

Advertisements
Track Severe Weather on mobile